x

Apk - Aripeka, Fl (arpf1) Weather Station

8:54am - Sun 14th Oct 2018 All times are EDT. -4 hours from GMT.

  • Wind
    6mph, 9mph gusts
  • Air Temp 74°f
  • Sea Pressure 1016.7mb
  • Apk - Aripeka, Fl
  • Apk - Aripeka, Fl

More Historic Weather Station data

Upgrade to MSW Pro to gain access to the past 30 days of data for over 8000 Wavebouys and Weather Stations around the globe.

Join

Comparision Forecast

View Surf forecast
   
Sun 10/14 8:54am 6 9 mph 1016.7mb 74f
8:48am 6 8 mph 1016.7mb 74f
7:54am 6 8 mph 1016.5mb 71f
7:48am 6 8 mph 1016.6mb 70f
6:54am 6 8 mph 1016.3mb 71f
6:48am 5 7 mph 1016.3mb 71f
4:54am 5 7 mph 1015.5mb 71f
4:48am 5 7 mph 1015.6mb 71f
2:54am 6 8 mph 1015.7mb 71f
2:48am 5 8 mph 1015.7mb 71f
1:54am 5 7 mph 1015.8mb 71f
1:48am 5 7 mph 1015.8mb 71f
12:54am 5 6 mph 1015.7mb 71f
12:48am 5 7 mph 1015.6mb 71f
Sat 10/13 11:54pm 5 8 mph 1015.6mb 72f
11:48pm 5 8 mph 1015.7mb 73f
10:54pm 5 6 mph 1015.4mb 74f
10:48pm 5 7 mph 1015.4mb 74f
9:54pm 2 3 mph 1014.4mb 74f
9:48pm 2 3 mph 1014.3mb 73f
8:54pm  -  1 mph 1013.7mb 74f
8:48pm 1 2 mph 1013.7mb 74f
7:54pm 1 2 mph 1013.1mb 76f
7:48pm 1 2 mph 1013mb 76f
6:54pm 1 3 mph 1012.6mb 81f
6:48pm 2 5 mph 1012.6mb 82f
5:54pm 2 5 mph 1012.3mb 83f
5:48pm 1 3 mph 1012.3mb 83f
3:54pm 5 10 mph 1012.5mb 83f
3:48pm 5 8 mph 1012.6mb 83f
2:54pm 5 8 mph 1013mb 83f
2:48pm 6 11 mph 1013mb 82f
1:54pm 6 8 mph 1013.5mb 82f
1:48pm 6 9 mph 1013.5mb 82f
12:54pm 8 10 mph 1014.1mb 82f
12:48pm 6 9 mph 1014.2mb 83f
11:54am 5 9 mph 1014.5mb 81f
11:48am 5 8 mph 1014.7mb 81f
10:54am 8 9 mph 1014.7mb 78f
10:48am 7 9 mph 1014.7mb 77f
9:54am 7 10 mph 1014.5mb 74f
9:48am 10 13 mph 1014.5mb 74f
7:54am 5 7 mph 1013.5mb 65f
7:48am 3 6 mph 1013.5mb 65f
6:54am 2 3 mph 1013.2mb 65f
6:48am  -  2 mph 1013.1mb 65f
4:54am 1 3 mph 1012.1mb 67f
4:48am 1 2 mph 1012mb 67f
3:54am 3 6 mph 1011.9mb 69f
3:48am 2 5 mph 1011.9mb 69f
2:54am 3 5 mph 1012.1mb 69f
2:48am 3 5 mph 1012.1mb 69f
1:54am 2 3 mph 1011.8mb 69f
1:48am 3 3 mph 1011.9mb 69f
12:54am 2 3 mph 1011.9mb 71f
12:48am 2 3 mph 1011.9mb 71f
Fri 10/12 11:54pm 1 3 mph 1011.9mb 77f
11:48pm 1 3 mph 1011.9mb 77f
10:54pm 2 5 mph 1012.1mb 78f
10:48pm 1 3 mph 1012mb 77f
9:54pm 3 7 mph 1011.9mb 78f
9:48pm 3 8 mph 1011.9mb 78f
8:54pm 3 8 mph 1011.3mb 78f
8:48pm 5 8 mph 1011.3mb 78f
6:54pm 6 11 mph 1010.4mb 79f
6:48pm 7 11 mph 1010.4mb 79f
5:54pm 8 11 mph 1010.3mb 80f
5:48pm 7 10 mph 1010.3mb 80f
4:54pm 8 11 mph 1010.4mb 81f
4:48pm 6 11 mph 1010.4mb 82f
3:54pm 7 10 mph 1010.5mb 83f
3:48pm 6 9 mph 1010.5mb 82f
2:54pm 7 9 mph 1010.9mb 81f
2:48pm 8 9 mph 1011mb 81f
1:54pm 5 9 mph 1011.6mb 82f
1:48pm 6 9 mph 1011.6mb 81f
12:54pm 6 10 mph 1012mb 81f
12:48pm 6 10 mph 1012.1mb 81f
10:54am 2 3 mph 1012.2mb 81f
10:48am 2 5 mph 1012.2mb 81f
9:54am 5 8 mph 1012.3mb 78f
9:48am 5 9 mph 1012.3mb 78f
7:54am 2 8 mph 1011.7mb 77f
7:48am 3 7 mph 1011.7mb 77f
6:54am 5 9 mph 1011.4mb 80f
6:48am 7 11 mph 1011.3mb 80f
4:54am 6 8 mph 1010.4mb 81f
4:48am 7 10 mph 1010.5mb 81f
3:54am 9 13 mph 1010.4mb 82f
3:48am 8 10 mph 1010.4mb 81f
2:54am 8 9 mph 1010.7mb 82f
2:48am 8 10 mph 1010.6mb 82f
1:54am 7 9 mph 1010.9mb 82f
1:48am 9 13 mph 1010.9mb 82f
Thu 10/11 11:54pm 9 11 mph 1011.5mb 82f
11:48pm 9 13 mph 1011.5mb 82f
10:54pm 10 13 mph 1011.5mb 83f
10:48pm 9 11 mph 1011.5mb 83f
9:54pm 10 14 mph 1011.3mb 83f
9:48pm 11 15 mph 1011.2mb 83f
7:54pm 8 11 mph 1010.1mb 83f
7:48pm 8 10 mph 1010.1mb 83f
6:54pm 8 10 mph 1010.1mb 84f
6:48pm 8 9 mph 1010.1mb 84f
5:54pm 9 10 mph 1010mb 85f
5:48pm 9 11 mph 1010mb 85f
4:54pm 8 10 mph 1010mb 85f
4:48pm 7 10 mph 1010.2mb 85f
3:54pm 8 10 mph 1010.4mb 85f
3:48pm 9 10 mph 1010.3mb 85f
2:54pm 8 10 mph 1010.6mb 85f
2:48pm 8 10 mph 1010.7mb 85f